sensor_id;sensor_type;location;lat;lon;timestamp;P1;durP1;ratioP1;P2;durP2;ratioP2
75038;SDS011;63609;49.992;14.512;2023-02-28T00:01:34;11.18;;;6.40;;
75038;SDS011;63609;49.992;14.512;2023-02-28T00:04:01;13.93;;;6.07;;
75038;SDS011;63609;49.992;14.512;2023-02-28T00:06:28;15.68;;;5.72;;
75038;SDS011;63609;49.992;14.512;2023-02-28T00:08:55;16.95;;;5.93;;
75038;SDS011;63609;49.992;14.512;2023-02-28T00:13:48;11.82;;;5.47;;
75038;SDS011;63609;49.992;14.512;2023-02-28T00:16:16;16.10;;;6.00;;
75038;SDS011;63609;49.992;14.512;2023-02-28T00:18:46;16.33;;;6.35;;
75038;SDS011;63609;49.992;14.512;2023-02-28T00:21:14;13.73;;;6.53;;
75038;SDS011;63609;49.992;14.512;2023-02-28T00:23:43;13.23;;;6.00;;
75038;SDS011;63609;49.992;14.512;2023-02-28T00:26:10;15.43;;;6.45;;
75038;SDS011;63609;49.992;14.512;2023-02-28T00:28:42;13.20;;;6.13;;
75038;SDS011;63609;49.992;14.512;2023-02-28T00:31:09;15.60;;;6.45;;
75038;SDS011;63609;49.992;14.512;2023-02-28T00:33:39;13.00;;;6.25;;
75038;SDS011;63609;49.992;14.512;2023-02-28T00:36:07;11.30;;;5.60;;
75038;SDS011;63609;49.992;14.512;2023-02-28T00:38:36;14.02;;;6.40;;
75038;SDS011;63609;49.992;14.512;2023-02-28T00:41:05;12.85;;;5.43;;
75038;SDS011;63609;49.992;14.512;2023-02-28T00:43:33;17.58;;;6.50;;
75038;SDS011;63609;49.992;14.512;2023-02-28T00:46:03;14.25;;;6.50;;
75038;SDS011;63609;49.992;14.512;2023-02-28T00:48:31;13.85;;;5.82;;
75038;SDS011;63609;49.992;14.512;2023-02-28T00:50:58;15.38;;;5.97;;
75038;SDS011;63609;49.992;14.512;2023-02-28T00:53:25;12.20;;;5.38;;
75038;SDS011;63609;49.992;14.512;2023-02-28T00:55:52;13.85;;;6.18;;
75038;SDS011;63609;49.992;14.512;2023-02-28T00:58:19;14.27;;;5.50;;
75038;SDS011;63609;49.992;14.512;2023-02-28T01:03:16;11.75;;;5.35;;
75038;SDS011;63609;49.992;14.512;2023-02-28T01:05:46;12.40;;;6.22;;
75038;SDS011;63609;49.992;14.512;2023-02-28T01:08:15;12.77;;;6.30;;
75038;SDS011;63609;49.992;14.512;2023-02-28T01:10:42;12.18;;;6.30;;
75038;SDS011;63609;49.992;14.512;2023-02-28T01:13:09;14.10;;;5.72;;
75038;SDS011;63609;49.992;14.512;2023-02-28T01:15:37;16.33;;;6.85;;
75038;SDS011;63609;49.992;14.512;2023-02-28T01:18:08;15.00;;;6.22;;
75038;SDS011;63609;49.992;14.512;2023-02-28T01:20:36;12.05;;;6.53;;
75038;SDS011;63609;49.992;14.512;2023-02-28T01:23:04;14.65;;;6.65;;
75038;SDS011;63609;49.992;14.512;2023-02-28T01:25:36;12.60;;;5.60;;
75038;SDS011;63609;49.992;14.512;2023-02-28T01:28:04;13.32;;;6.03;;
75038;SDS011;63609;49.992;14.512;2023-02-28T01:30:33;14.88;;;5.53;;
75038;SDS011;63609;49.992;14.512;2023-02-28T01:32:59;13.68;;;6.35;;
75038;SDS011;63609;49.992;14.512;2023-02-28T01:35:27;14.80;;;6.05;;
75038;SDS011;63609;49.992;14.512;2023-02-28T01:37:54;12.93;;;6.07;;
75038;SDS011;63609;49.992;14.512;2023-02-28T01:40:20;14.90;;;6.55;;
75038;SDS011;63609;49.992;14.512;2023-02-28T01:42:48;14.73;;;6.35;;
75038;SDS011;63609;49.992;14.512;2023-02-28T01:45:30;12.23;;;6.22;;
75038;SDS011;63609;49.992;14.512;2023-02-28T01:48:03;16.77;;;7.13;;
75038;SDS011;63609;49.992;14.512;2023-02-28T01:50:39;14.77;;;6.25;;
75038;SDS011;63609;49.992;14.512;2023-02-28T01:53:10;14.82;;;6.72;;
75038;SDS011;63609;49.992;14.512;2023-02-28T01:55:45;11.57;;;5.95;;
75038;SDS011;63609;49.992;14.512;2023-02-28T01:58:15;14.10;;;6.07;;
75038;SDS011;63609;49.992;14.512;2023-02-28T02:00:42;11.32;;;5.30;;
75038;SDS011;63609;49.992;14.512;2023-02-28T02:05:41;12.20;;;5.72;;
75038;SDS011;63609;49.992;14.512;2023-02-28T02:10:39;11.98;;;5.38;;
75038;SDS011;63609;49.992;14.512;2023-02-28T02:13:13;13.23;;;6.45;;
75038;SDS011;63609;49.992;14.512;2023-02-28T02:24:19;13.10;;;5.82;;
75038;SDS011;63609;49.992;14.512;2023-02-28T02:27:16;12.43;;;5.60;;
75038;SDS011;63609;49.992;14.512;2023-02-28T02:38:19;14.75;;;6.20;;
75038;SDS011;63609;49.992;14.512;2023-02-28T02:43:46;12.23;;;6.22;;
75038;SDS011;63609;49.992;14.512;2023-02-28T02:49:33;12.05;;;5.90;;
75038;SDS011;63609;49.992;14.512;2023-02-28T02:52:05;13.40;;;4.95;;
75038;SDS011;63609;49.992;14.512;2023-02-28T02:54:36;16.05;;;5.75;;
75038;SDS011;63609;49.992;14.512;2023-02-28T02:59:54;11.90;;;5.15;;
75038;SDS011;63609;49.992;14.512;2023-02-28T03:02:25;11.70;;;4.93;;
75038;SDS011;63609;49.992;14.512;2023-02-28T03:05:01;11.65;;;5.68;;
75038;SDS011;63609;49.992;14.512;2023-02-28T03:07:32;8.90;;;4.70;;
75038;SDS011;63609;49.992;14.512;2023-02-28T03:10:00;10.43;;;4.93;;
75038;SDS011;63609;49.992;14.512;2023-02-28T03:12:31;12.38;;;5.20;;
75038;SDS011;63609;49.992;14.512;2023-02-28T03:15:08;12.05;;;4.63;;
75038;SDS011;63609;49.992;14.512;2023-02-28T03:23:23;9.60;;;4.65;;
75038;SDS011;63609;49.992;14.512;2023-02-28T03:26:04;13.05;;;4.82;;
75038;SDS011;63609;49.992;14.512;2023-02-28T03:28:50;9.30;;;4.35;;
75038;SDS011;63609;49.992;14.512;2023-02-28T03:37:09;11.77;;;5.03;;
75038;SDS011;63609;49.992;14.512;2023-02-28T03:39:43;14.50;;;5.75;;
75038;SDS011;63609;49.992;14.512;2023-02-28T03:42:18;10.50;;;4.57;;
75038;SDS011;63609;49.992;14.512;2023-02-28T03:44:51;12.77;;;4.65;;
75038;SDS011;63609;49.992;14.512;2023-02-28T03:47:32;13.15;;;5.63;;
75038;SDS011;63609;49.992;14.512;2023-02-28T03:50:13;11.00;;;4.72;;
75038;SDS011;63609;49.992;14.512;2023-02-28T03:53:07;10.68;;;4.75;;
75038;SDS011;63609;49.992;14.512;2023-02-28T03:55:54;10.57;;;4.72;;
75038;SDS011;63609;49.992;14.512;2023-02-28T03:58:35;13.75;;;5.50;;
75038;SDS011;63609;49.992;14.512;2023-02-28T04:01:09;12.02;;;5.13;;
75038;SDS011;63609;49.992;14.512;2023-02-28T04:03:41;11.85;;;5.03;;
75038;SDS011;63609;49.992;14.512;2023-02-28T04:06:13;13.20;;;5.25;;
75038;SDS011;63609;49.992;14.512;2023-02-28T04:08:43;10.23;;;4.72;;
75038;SDS011;63609;49.992;14.512;2023-02-28T04:11:21;10.77;;;5.28;;
75038;SDS011;63609;49.992;14.512;2023-02-28T04:13:49;11.10;;;5.50;;
75038;SDS011;63609;49.992;14.512;2023-02-28T04:16:16;9.77;;;5.22;;
75038;SDS011;63609;49.992;14.512;2023-02-28T04:19:00;13.90;;;6.00;;
75038;SDS011;63609;49.992;14.512;2023-02-28T04:21:35;13.23;;;5.55;;
75038;SDS011;63609;49.992;14.512;2023-02-28T04:24:04;10.48;;;4.90;;
75038;SDS011;63609;49.992;14.512;2023-02-28T04:26:33;10.85;;;4.97;;
75038;SDS011;63609;49.992;14.512;2023-02-28T04:29:02;12.02;;;5.28;;
75038;SDS011;63609;49.992;14.512;2023-02-28T04:31:30;11.13;;;5.57;;
75038;SDS011;63609;49.992;14.512;2023-02-28T04:33:58;13.52;;;5.35;;
75038;SDS011;63609;49.992;14.512;2023-02-28T04:36:27;12.30;;;5.40;;
75038;SDS011;63609;49.992;14.512;2023-02-28T04:38:55;13.70;;;5.25;;
75038;SDS011;63609;49.992;14.512;2023-02-28T04:41:23;16.33;;;5.90;;
75038;SDS011;63609;49.992;14.512;2023-02-28T04:43:53;13.07;;;5.25;;
75038;SDS011;63609;49.992;14.512;2023-02-28T04:46:23;13.80;;;6.85;;
75038;SDS011;63609;49.992;14.512;2023-02-28T04:48:50;15.77;;;6.43;;
75038;SDS011;63609;49.992;14.512;2023-02-28T04:51:17;13.23;;;5.65;;
75038;SDS011;63609;49.992;14.512;2023-02-28T04:53:46;15.85;;;6.05;;
75038;SDS011;63609;49.992;14.512;2023-02-28T04:56:15;18.73;;;6.63;;
75038;SDS011;63609;49.992;14.512;2023-02-28T04:58:43;17.95;;;6.63;;
75038;SDS011;63609;49.992;14.512;2023-02-28T05:01:29;15.10;;;5.97;;
75038;SDS011;63609;49.992;14.512;2023-02-28T05:03:59;16.40;;;6.63;;
75038;SDS011;63609;49.992;14.512;2023-02-28T05:06:29;17.67;;;7.40;;
75038;SDS011;63609;49.992;14.512;2023-02-28T05:08:59;24.60;;;8.02;;
75038;SDS011;63609;49.992;14.512;2023-02-28T05:13:57;13.88;;;6.18;;
75038;SDS011;63609;49.992;14.512;2023-02-28T05:16:24;16.33;;;6.15;;
75038;SDS011;63609;49.992;14.512;2023-02-28T05:18:53;17.10;;;6.32;;
75038;SDS011;63609;49.992;14.512;2023-02-28T05:21:22;15.70;;;6.40;;
75038;SDS011;63609;49.992;14.512;2023-02-28T05:23:53;15.38;;;6.25;;
75038;SDS011;63609;49.992;14.512;2023-02-28T05:26:21;13.02;;;6.35;;
75038;SDS011;63609;49.992;14.512;2023-02-28T05:28:49;12.77;;;6.13;;
75038;SDS011;63609;49.992;14.512;2023-02-28T05:31:16;13.68;;;5.05;;
75038;SDS011;63609;49.992;14.512;2023-02-28T05:36:10;11.88;;;5.47;;
75038;SDS011;63609;49.992;14.512;2023-02-28T05:38:38;12.57;;;5.57;;
75038;SDS011;63609;49.992;14.512;2023-02-28T05:41:10;11.40;;;5.05;;
75038;SDS011;63609;49.992;14.512;2023-02-28T05:43:38;13.35;;;6.15;;
75038;SDS011;63609;49.992;14.512;2023-02-28T05:46:09;12.90;;;6.03;;
75038;SDS011;63609;49.992;14.512;2023-02-28T05:48:38;13.85;;;5.97;;
75038;SDS011;63609;49.992;14.512;2023-02-28T05:51:06;14.63;;;5.78;;
75038;SDS011;63609;49.992;14.512;2023-02-28T05:53:34;13.18;;;5.85;;
75038;SDS011;63609;49.992;14.512;2023-02-28T05:56:04;15.70;;;5.60;;
75038;SDS011;63609;49.992;14.512;2023-02-28T05:58:33;14.00;;;6.25;;
75038;SDS011;63609;49.992;14.512;2023-02-28T06:01:18;15.25;;;6.60;;
75038;SDS011;63609;49.992;14.512;2023-02-28T06:03:51;13.05;;;5.53;;
75038;SDS011;63609;49.992;14.512;2023-02-28T06:06:24;17.00;;;6.57;;
75038;SDS011;63609;49.992;14.512;2023-02-28T06:08:51;15.55;;;5.90;;
75038;SDS011;63609;49.992;14.512;2023-02-28T06:11:19;14.75;;;7.03;;
75038;SDS011;63609;49.992;14.512;2023-02-28T06:13:47;15.02;;;5.80;;
75038;SDS011;63609;49.992;14.512;2023-02-28T06:16:15;13.55;;;6.40;;
75038;SDS011;63609;49.992;14.512;2023-02-28T06:21:09;18.65;;;6.28;;
75038;SDS011;63609;49.992;14.512;2023-02-28T06:23:36;14.07;;;6.22;;
75038;SDS011;63609;49.992;14.512;2023-02-28T06:26:04;15.32;;;6.47;;
75038;SDS011;63609;49.992;14.512;2023-02-28T06:28:39;15.90;;;7.18;;
75038;SDS011;63609;49.992;14.512;2023-02-28T06:31:10;12.57;;;5.68;;
75038;SDS011;63609;49.992;14.512;2023-02-28T06:33:39;16.05;;;6.63;;
75038;SDS011;63609;49.992;14.512;2023-02-28T06:36:08;14.27;;;6.18;;
75038;SDS011;63609;49.992;14.512;2023-02-28T06:38:36;13.70;;;6.07;;
75038;SDS011;63609;49.992;14.512;2023-02-28T06:41:06;15.98;;;6.28;;
75038;SDS011;63609;49.992;14.512;2023-02-28T06:43:35;16.75;;;6.47;;
75038;SDS011;63609;49.992;14.512;2023-02-28T06:46:05;17.52;;;6.65;;
75038;SDS011;63609;49.992;14.512;2023-02-28T06:48:38;15.93;;;7.38;;
75038;SDS011;63609;49.992;14.512;2023-02-28T06:51:09;14.35;;;6.20;;
75038;SDS011;63609;49.992;14.512;2023-02-28T06:53:41;15.57;;;6.85;;
75038;SDS011;63609;49.992;14.512;2023-02-28T06:56:10;15.85;;;6.82;;
75038;SDS011;63609;49.992;14.512;2023-02-28T06:58:38;17.70;;;6.68;;
75038;SDS011;63609;49.992;14.512;2023-02-28T07:01:09;15.80;;;6.72;;
75038;SDS011;63609;49.992;14.512;2023-02-28T07:03:37;15.98;;;6.85;;
75038;SDS011;63609;49.992;14.512;2023-02-28T07:06:07;13.98;;;5.85;;
75038;SDS011;63609;49.992;14.512;2023-02-28T07:08:35;11.80;;;6.35;;
75038;SDS011;63609;49.992;14.512;2023-02-28T07:11:06;14.00;;;5.70;;
75038;SDS011;63609;49.992;14.512;2023-02-28T07:16:05;10.48;;;5.18;;
75038;SDS011;63609;49.992;14.512;2023-02-28T07:18:37;12.13;;;6.47;;
75038;SDS011;63609;49.992;14.512;2023-02-28T07:21:06;12.00;;;6.25;;
75038;SDS011;63609;49.992;14.512;2023-02-28T07:23:36;12.68;;;6.20;;
75038;SDS011;63609;49.992;14.512;2023-02-28T07:26:05;10.90;;;5.30;;
75038;SDS011;63609;49.992;14.512;2023-02-28T07:28:45;11.63;;;4.80;;
75038;SDS011;63609;49.992;14.512;2023-02-28T07:31:14;19.67;;;6.45;;
75038;SDS011;63609;49.992;14.512;2023-02-28T07:33:42;15.00;;;6.00;;
75038;SDS011;63609;49.992;14.512;2023-02-28T07:36:13;16.85;;;5.82;;
75038;SDS011;63609;49.992;14.512;2023-02-28T07:38:47;17.13;;;6.75;;
75038;SDS011;63609;49.992;14.512;2023-02-28T07:41:17;11.63;;;4.53;;
75038;SDS011;63609;49.992;14.512;2023-02-28T07:43:49;17.85;;;6.60;;
75038;SDS011;63609;49.992;14.512;2023-02-28T07:46:17;14.02;;;6.20;;
75038;SDS011;63609;49.992;14.512;2023-02-28T07:48:46;12.63;;;5.45;;
75038;SDS011;63609;49.992;14.512;2023-02-28T07:53:40;17.20;;;6.22;;
75038;SDS011;63609;49.992;14.512;2023-02-28T07:58:35;10.05;;;4.45;;
75038;SDS011;63609;49.992;14.512;2023-02-28T08:01:06;9.43;;;4.78;;
75038;SDS011;63609;49.992;14.512;2023-02-28T08:03:34;12.88;;;5.55;;
75038;SDS011;63609;49.992;14.512;2023-02-28T08:06:03;14.70;;;6.35;;
75038;SDS011;63609;49.992;14.512;2023-02-28T08:08:31;10.90;;;5.22;;
75038;SDS011;63609;49.992;14.512;2023-02-28T08:11:01;12.77;;;5.85;;
75038;SDS011;63609;49.992;14.512;2023-02-28T08:13:30;14.52;;;5.80;;
75038;SDS011;63609;49.992;14.512;2023-02-28T08:15:57;13.13;;;5.72;;
75038;SDS011;63609;49.992;14.512;2023-02-28T08:18:24;15.50;;;6.60;;
75038;SDS011;63609;49.992;14.512;2023-02-28T08:20:51;12.13;;;5.78;;
75038;SDS011;63609;49.992;14.512;2023-02-28T08:23:18;13.60;;;5.70;;
75038;SDS011;63609;49.992;14.512;2023-02-28T08:25:52;14.52;;;5.70;;
75038;SDS011;63609;49.992;14.512;2023-02-28T08:28:21;17.23;;;6.05;;
75038;SDS011;63609;49.992;14.512;2023-02-28T08:30:52;8.52;;;4.32;;
75038;SDS011;63609;49.992;14.512;2023-02-28T08:33:22;11.25;;;5.10;;
75038;SDS011;63609;49.992;14.512;2023-02-28T08:35:52;11.40;;;5.28;;
75038;SDS011;63609;49.992;14.512;2023-02-28T08:38:21;12.65;;;5.93;;
75038;SDS011;63609;49.992;14.512;2023-02-28T08:40:49;12.65;;;5.78;;
75038;SDS011;63609;49.992;14.512;2023-02-28T08:43:16;15.40;;;5.80;;
75038;SDS011;63609;49.992;14.512;2023-02-28T08:48:13;8.43;;;4.32;;
75038;SDS011;63609;49.992;14.512;2023-02-28T08:50:54;14.60;;;5.28;;
75038;SDS011;63609;49.992;14.512;2023-02-28T08:53:33;10.77;;;5.60;;
75038;SDS011;63609;49.992;14.512;2023-02-28T08:56:07;15.98;;;5.43;;
75038;SDS011;63609;49.992;14.512;2023-02-28T08:58:56;16.13;;;6.25;;
75038;SDS011;63609;49.992;14.512;2023-02-28T09:04:20;9.98;;;5.10;;
75038;SDS011;63609;49.992;14.512;2023-02-28T09:09:42;8.45;;;4.45;;
75038;SDS011;63609;49.992;14.512;2023-02-28T09:12:23;11.20;;;5.05;;
75038;SDS011;63609;49.992;14.512;2023-02-28T09:14:56;11.05;;;5.40;;
75038;SDS011;63609;49.992;14.512;2023-02-28T09:17:23;15.00;;;5.80;;
75038;SDS011;63609;49.992;14.512;2023-02-28T09:19:56;11.75;;;5.30;;
75038;SDS011;63609;49.992;14.512;2023-02-28T09:22:23;15.10;;;6.20;;
75038;SDS011;63609;49.992;14.512;2023-02-28T09:24:50;10.20;;;4.72;;
75038;SDS011;63609;49.992;14.512;2023-02-28T09:27:17;11.07;;;4.78;;
75038;SDS011;63609;49.992;14.512;2023-02-28T09:29:44;14.10;;;5.57;;
75038;SDS011;63609;49.992;14.512;2023-02-28T09:34:39;15.05;;;4.95;;
75038;SDS011;63609;49.992;14.512;2023-02-28T09:37:06;9.40;;;4.38;;
75038;SDS011;63609;49.992;14.512;2023-02-28T09:39:33;11.32;;;5.10;;
75038;SDS011;63609;49.992;14.512;2023-02-28T09:44:30;10.25;;;5.25;;
75038;SDS011;63609;49.992;14.512;2023-02-28T09:47:48;13.48;;;5.28;;
75038;SDS011;63609;49.992;14.512;2023-02-28T09:52:51;12.57;;;5.68;;
75038;SDS011;63609;49.992;14.512;2023-02-28T09:57:48;11.35;;;5.57;;
75038;SDS011;63609;49.992;14.512;2023-02-28T10:03:27;9.30;;;5.32;;
75038;SDS011;63609;49.992;14.512;2023-02-28T10:11:29;12.25;;;5.50;;
75038;SDS011;63609;49.992;14.512;2023-02-28T10:14:01;11.80;;;5.20;;
75038;SDS011;63609;49.992;14.512;2023-02-28T10:19:38;10.95;;;5.18;;
75038;SDS011;63609;49.992;14.512;2023-02-28T10:25:34;12.75;;;5.57;;
75038;SDS011;63609;49.992;14.512;2023-02-28T10:28:13;10.50;;;5.32;;
75038;SDS011;63609;49.992;14.512;2023-02-28T10:30:45;12.93;;;5.70;;
75038;SDS011;63609;49.992;14.512;2023-02-28T10:33:22;12.80;;;5.88;;
75038;SDS011;63609;49.992;14.512;2023-02-28T10:35:52;11.00;;;5.78;;
75038;SDS011;63609;49.992;14.512;2023-02-28T10:38:26;9.98;;;6.15;;
75038;SDS011;63609;49.992;14.512;2023-02-28T10:41:34;11.70;;;5.25;;
75038;SDS011;63609;49.992;14.512;2023-02-28T10:44:18;10.23;;;5.25;;
75038;SDS011;63609;49.992;14.512;2023-02-28T10:46:49;14.15;;;7.25;;
75038;SDS011;63609;49.992;14.512;2023-02-28T10:49:19;15.45;;;6.10;;
75038;SDS011;63609;49.992;14.512;2023-02-28T10:51:53;12.52;;;6.07;;
75038;SDS011;63609;49.992;14.512;2023-02-28T10:54:28;8.52;;;4.13;;
75038;SDS011;63609;49.992;14.512;2023-02-28T10:57:35;14.88;;;5.82;;
75038;SDS011;63609;49.992;14.512;2023-02-28T11:00:08;12.68;;;5.93;;
75038;SDS011;63609;49.992;14.512;2023-02-28T11:02:45;13.40;;;6.60;;
75038;SDS011;63609;49.992;14.512;2023-02-28T11:08:10;11.68;;;5.53;;
75038;SDS011;63609;49.992;14.512;2023-02-28T11:10:53;11.35;;;5.93;;
75038;SDS011;63609;49.992;14.512;2023-02-28T11:13:35;11.50;;;5.28;;
75038;SDS011;63609;49.992;14.512;2023-02-28T11:16:08;11.52;;;6.00;;
75038;SDS011;63609;49.992;14.512;2023-02-28T11:18:43;12.23;;;5.72;;
75038;SDS011;63609;49.992;14.512;2023-02-28T11:21:16;11.57;;;5.55;;
75038;SDS011;63609;49.992;14.512;2023-02-28T11:23:46;12.68;;;5.30;;
75038;SDS011;63609;49.992;14.512;2023-02-28T11:26:15;12.43;;;5.65;;
75038;SDS011;63609;49.992;14.512;2023-02-28T11:29:03;13.00;;;6.15;;
75038;SDS011;63609;49.992;14.512;2023-02-28T11:31:37;15.50;;;6.38;;
75038;SDS011;63609;49.992;14.512;2023-02-28T11:34:21;13.10;;;6.13;;
75038;SDS011;63609;49.992;14.512;2023-02-28T11:36:51;11.93;;;6.57;;
75038;SDS011;63609;49.992;14.512;2023-02-28T11:39:23;11.35;;;5.90;;
75038;SDS011;63609;49.992;14.512;2023-02-28T11:47:20;10.15;;;5.18;;
75038;SDS011;63609;49.992;14.512;2023-02-28T11:52:35;11.52;;;5.55;;
75038;SDS011;63609;49.992;14.512;2023-02-28T11:55:31;10.38;;;5.80;;
75038;SDS011;63609;49.992;14.512;2023-02-28T12:01:04;10.30;;;5.30;;
75038;SDS011;63609;49.992;14.512;2023-02-28T12:04:11;10.15;;;5.63;;
75038;SDS011;63609;49.992;14.512;2023-02-28T12:20:11;11.20;;;6.05;;
75038;SDS011;63609;49.992;14.512;2023-02-28T12:28:22;13.73;;;5.38;;
75038;SDS011;63609;49.992;14.512;2023-02-28T12:33:37;11.40;;;5.90;;
75038;SDS011;63609;49.992;14.512;2023-02-28T12:36:10;14.07;;;6.18;;
75038;SDS011;63609;49.992;14.512;2023-02-28T12:38:45;12.00;;;5.55;;
75038;SDS011;63609;49.992;14.512;2023-02-28T12:41:18;12.90;;;5.72;;
75038;SDS011;63609;49.992;14.512;2023-02-28T12:44:08;10.57;;;5.18;;
75038;SDS011;63609;49.992;14.512;2023-02-28T12:46:49;12.27;;;5.82;;
75038;SDS011;63609;49.992;14.512;2023-02-28T12:49:25;12.32;;;6.00;;
75038;SDS011;63609;49.992;14.512;2023-02-28T12:51:59;11.88;;;6.15;;
75038;SDS011;63609;49.992;14.512;2023-02-28T12:57:19;9.88;;;5.30;;
75038;SDS011;63609;49.992;14.512;2023-02-28T13:00:03;8.85;;;5.20;;
75038;SDS011;63609;49.992;14.512;2023-02-28T13:11:41;12.75;;;6.00;;
75038;SDS011;63609;49.992;14.512;2023-02-28T13:14:35;13.88;;;6.60;;
75038;SDS011;63609;49.992;14.512;2023-02-28T13:19:57;11.55;;;5.35;;
75038;SDS011;63609;49.992;14.512;2023-02-28T13:24:53;13.35;;;6.95;;
75038;SDS011;63609;49.992;14.512;2023-02-28T13:27:34;12.55;;;6.03;;
75038;SDS011;63609;49.992;14.512;2023-02-28T13:33:29;13.65;;;6.22;;
75038;SDS011;63609;49.992;14.512;2023-02-28T13:36:09;10.70;;;5.70;;
75038;SDS011;63609;49.992;14.512;2023-02-28T13:38:47;11.90;;;5.88;;
75038;SDS011;63609;49.992;14.512;2023-02-28T13:54:45;11.00;;;6.82;;
75038;SDS011;63609;49.992;14.512;2023-02-28T14:06:22;12.88;;;5.90;;
75038;SDS011;63609;49.992;14.512;2023-02-28T14:11:31;11.93;;;5.45;;
75038;SDS011;63609;49.992;14.512;2023-02-28T14:14:09;13.15;;;6.13;;
75038;SDS011;63609;49.992;14.512;2023-02-28T14:17:02;10.07;;;5.20;;
75038;SDS011;63609;49.992;14.512;2023-02-28T14:19:32;11.25;;;5.90;;
75038;SDS011;63609;49.992;14.512;2023-02-28T14:27:15;11.15;;;6.15;;
75038;SDS011;63609;49.992;14.512;2023-02-28T14:41:32;12.18;;;6.65;;
75038;SDS011;63609;49.992;14.512;2023-02-28T14:44:13;14.18;;;6.70;;
75038;SDS011;63609;49.992;14.512;2023-02-28T14:46:55;13.25;;;6.05;;
75038;SDS011;63609;49.992;14.512;2023-02-28T14:49:31;14.10;;;6.35;;
75038;SDS011;63609;49.992;14.512;2023-02-28T14:52:06;14.27;;;6.10;;
75038;SDS011;63609;49.992;14.512;2023-02-28T14:54:52;11.25;;;6.32;;
75038;SDS011;63609;49.992;14.512;2023-02-28T14:57:22;12.23;;;6.38;;
75038;SDS011;63609;49.992;14.512;2023-02-28T15:00:46;14.32;;;6.43;;
75038;SDS011;63609;49.992;14.512;2023-02-28T15:03:23;16.77;;;7.40;;
75038;SDS011;63609;49.992;14.512;2023-02-28T15:06:03;14.05;;;7.53;;
75038;SDS011;63609;49.992;14.512;2023-02-28T15:08:34;15.95;;;6.80;;
75038;SDS011;63609;49.992;14.512;2023-02-28T15:11:05;13.38;;;7.18;;
75038;SDS011;63609;49.992;14.512;2023-02-28T15:16:19;14.52;;;7.10;;
75038;SDS011;63609;49.992;14.512;2023-02-28T15:21:27;14.95;;;7.13;;
75038;SDS011;63609;49.992;14.512;2023-02-28T15:24:14;12.50;;;6.82;;
75038;SDS011;63609;49.992;14.512;2023-02-28T15:26:52;13.68;;;6.25;;
75038;SDS011;63609;49.992;14.512;2023-02-28T15:29:27;13.95;;;6.97;;
75038;SDS011;63609;49.992;14.512;2023-02-28T15:32:00;13.15;;;6.13;;
75038;SDS011;63609;49.992;14.512;2023-02-28T15:34:40;14.43;;;7.05;;
75038;SDS011;63609;49.992;14.512;2023-02-28T15:45:38;17.00;;;8.60;;
75038;SDS011;63609;49.992;14.512;2023-02-28T15:53:51;19.10;;;7.50;;
75038;SDS011;63609;49.992;14.512;2023-02-28T15:58:55;15.15;;;8.23;;
75038;SDS011;63609;49.992;14.512;2023-02-28T16:01:26;15.00;;;6.95;;
75038;SDS011;63609;49.992;14.512;2023-02-28T16:03:58;19.33;;;7.80;;
75038;SDS011;63609;49.992;14.512;2023-02-28T16:09:04;16.13;;;7.70;;
75038;SDS011;63609;49.992;14.512;2023-02-28T16:11:38;14.07;;;6.95;;
75038;SDS011;63609;49.992;14.512;2023-02-28T16:14:14;15.48;;;7.05;;
75038;SDS011;63609;49.992;14.512;2023-02-28T16:16:48;14.45;;;6.80;;
75038;SDS011;63609;49.992;14.512;2023-02-28T16:19:18;13.82;;;7.05;;
75038;SDS011;63609;49.992;14.512;2023-02-28T16:21:46;16.55;;;8.32;;
75038;SDS011;63609;49.992;14.512;2023-02-28T16:24:14;17.73;;;7.30;;
75038;SDS011;63609;49.992;14.512;2023-02-28T16:26:41;14.05;;;7.28;;
75038;SDS011;63609;49.992;14.512;2023-02-28T16:29:25;15.38;;;7.72;;
75038;SDS011;63609;49.992;14.512;2023-02-28T16:31:56;16.40;;;7.13;;
75038;SDS011;63609;49.992;14.512;2023-02-28T16:34:24;15.13;;;8.00;;
75038;SDS011;63609;49.992;14.512;2023-02-28T16:36:52;17.20;;;7.93;;
75038;SDS011;63609;49.992;14.512;2023-02-28T16:39:22;16.55;;;6.93;;
75038;SDS011;63609;49.992;14.512;2023-02-28T16:41:49;15.55;;;7.97;;
75038;SDS011;63609;49.992;14.512;2023-02-28T16:44:24;14.73;;;7.57;;
75038;SDS011;63609;49.992;14.512;2023-02-28T16:47:03;18.50;;;8.13;;
75038;SDS011;63609;49.992;14.512;2023-02-28T16:49:30;17.02;;;7.93;;
75038;SDS011;63609;49.992;14.512;2023-02-28T16:51:58;15.18;;;6.85;;
75038;SDS011;63609;49.992;14.512;2023-02-28T16:54:26;14.73;;;7.43;;
75038;SDS011;63609;49.992;14.512;2023-02-28T16:56:53;15.95;;;8.23;;
75038;SDS011;63609;49.992;14.512;2023-02-28T16:59:26;18.30;;;8.68;;
75038;SDS011;63609;49.992;14.512;2023-02-28T17:01:55;17.00;;;8.63;;
75038;SDS011;63609;49.992;14.512;2023-02-28T17:04:26;16.48;;;7.90;;
75038;SDS011;63609;49.992;14.512;2023-02-28T17:06:53;20.05;;;8.77;;
75038;SDS011;63609;49.992;14.512;2023-02-28T17:09:21;17.33;;;9.02;;
75038;SDS011;63609;49.992;14.512;2023-02-28T17:12:07;16.92;;;7.75;;
75038;SDS011;63609;49.992;14.512;2023-02-28T17:14:37;18.02;;;8.18;;
75038;SDS011;63609;49.992;14.512;2023-02-28T17:17:05;19.88;;;7.93;;
75038;SDS011;63609;49.992;14.512;2023-02-28T17:19:33;19.35;;;8.27;;
75038;SDS011;63609;49.992;14.512;2023-02-28T17:22:02;19.05;;;8.13;;
75038;SDS011;63609;49.992;14.512;2023-02-28T17:24:30;16.25;;;8.30;;
75038;SDS011;63609;49.992;14.512;2023-02-28T17:26:57;17.45;;;8.60;;
75038;SDS011;63609;49.992;14.512;2023-02-28T17:29:25;18.58;;;9.20;;
75038;SDS011;63609;49.992;14.512;2023-02-28T17:34:20;16.42;;;7.97;;
75038;SDS011;63609;49.992;14.512;2023-02-28T17:36:49;16.77;;;7.70;;
75038;SDS011;63609;49.992;14.512;2023-02-28T17:39:20;16.98;;;8.38;;
75038;SDS011;63609;49.992;14.512;2023-02-28T17:41:57;19.33;;;8.48;;
75038;SDS011;63609;49.992;14.512;2023-02-28T17:44:24;18.15;;;8.52;;
75038;SDS011;63609;49.992;14.512;2023-02-28T17:46:51;19.75;;;8.50;;
75038;SDS011;63609;49.992;14.512;2023-02-28T17:49:21;16.33;;;7.70;;
75038;SDS011;63609;49.992;14.512;2023-02-28T17:51:48;20.45;;;8.70;;
75038;SDS011;63609;49.992;14.512;2023-02-28T17:54:16;17.13;;;8.70;;
75038;SDS011;63609;49.992;14.512;2023-02-28T17:56:44;19.83;;;8.55;;
75038;SDS011;63609;49.992;14.512;2023-02-28T17:59:11;24.08;;;9.77;;
75038;SDS011;63609;49.992;14.512;2023-02-28T18:01:39;18.88;;;9.40;;
75038;SDS011;63609;49.992;14.512;2023-02-28T18:04:07;21.48;;;10.05;;
75038;SDS011;63609;49.992;14.512;2023-02-28T18:06:41;17.08;;;8.10;;
75038;SDS011;63609;49.992;14.512;2023-02-28T18:09:17;20.48;;;8.77;;
75038;SDS011;63609;49.992;14.512;2023-02-28T18:11:50;18.23;;;8.25;;
75038;SDS011;63609;49.992;14.512;2023-02-28T18:14:19;17.50;;;8.02;;
75038;SDS011;63609;49.992;14.512;2023-02-28T18:16:47;20.67;;;8.75;;
75038;SDS011;63609;49.992;14.512;2023-02-28T18:19:14;19.15;;;8.63;;
75038;SDS011;63609;49.992;14.512;2023-02-28T18:21:43;21.42;;;9.45;;
75038;SDS011;63609;49.992;14.512;2023-02-28T18:24:12;20.20;;;8.82;;
75038;SDS011;63609;49.992;14.512;2023-02-28T18:26:41;17.92;;;8.43;;
75038;SDS011;63609;49.992;14.512;2023-02-28T18:29:15;21.73;;;9.65;;
75038;SDS011;63609;49.992;14.512;2023-02-28T18:31:44;20.75;;;8.68;;